sensor_id;sensor_type;location;lat;lon;timestamp;P1;durP1;ratioP1;P2;durP2;ratioP2
9438;SDS011;5176;42.622;25.386;2023-07-13T00:00:37;18.92;;;16.30;;
9438;SDS011;5176;42.622;25.386;2023-07-13T00:03:04;17.80;;;16.02;;
9438;SDS011;5176;42.622;25.386;2023-07-13T00:05:32;17.15;;;15.45;;
9438;SDS011;5176;42.622;25.386;2023-07-13T00:07:59;17.75;;;15.93;;
9438;SDS011;5176;42.622;25.386;2023-07-13T00:10:26;18.50;;;15.80;;
9438;SDS011;5176;42.622;25.386;2023-07-13T00:12:54;18.38;;;16.10;;
9438;SDS011;5176;42.622;25.386;2023-07-13T00:15:23;17.20;;;15.18;;
9438;SDS011;5176;42.622;25.386;2023-07-13T00:17:52;20.55;;;15.52;;
9438;SDS011;5176;42.622;25.386;2023-07-13T00:20:20;19.48;;;15.63;;
9438;SDS011;5176;42.622;25.386;2023-07-13T00:22:50;17.00;;;15.32;;
9438;SDS011;5176;42.622;25.386;2023-07-13T00:25:19;15.90;;;14.25;;
9438;SDS011;5176;42.622;25.386;2023-07-13T00:27:46;17.17;;;15.27;;
9438;SDS011;5176;42.622;25.386;2023-07-13T00:30:14;16.20;;;14.73;;
9438;SDS011;5176;42.622;25.386;2023-07-13T00:32:44;17.95;;;15.77;;
9438;SDS011;5176;42.622;25.386;2023-07-13T00:35:12;17.40;;;15.38;;
9438;SDS011;5176;42.622;25.386;2023-07-13T00:37:40;17.92;;;15.75;;
9438;SDS011;5176;42.622;25.386;2023-07-13T00:40:09;17.00;;;15.27;;
9438;SDS011;5176;42.622;25.386;2023-07-13T00:42:38;17.55;;;15.68;;
9438;SDS011;5176;42.622;25.386;2023-07-13T00:45:06;19.25;;;15.93;;
9438;SDS011;5176;42.622;25.386;2023-07-13T00:47:57;16.30;;;14.73;;
9438;SDS011;5176;42.622;25.386;2023-07-13T00:50:24;17.83;;;15.80;;
9438;SDS011;5176;42.622;25.386;2023-07-13T00:52:53;18.35;;;16.55;;
9438;SDS011;5176;42.622;25.386;2023-07-13T00:55:23;18.63;;;16.73;;
9438;SDS011;5176;42.622;25.386;2023-07-13T00:57:50;18.13;;;16.33;;
9438;SDS011;5176;42.622;25.386;2023-07-13T01:00:19;16.40;;;14.80;;
9438;SDS011;5176;42.622;25.386;2023-07-13T01:02:48;16.73;;;15.10;;
9438;SDS011;5176;42.622;25.386;2023-07-13T01:05:19;17.08;;;15.38;;
9438;SDS011;5176;42.622;25.386;2023-07-13T01:07:48;17.05;;;14.75;;
9438;SDS011;5176;42.622;25.386;2023-07-13T01:10:18;18.17;;;14.27;;
9438;SDS011;5176;42.622;25.386;2023-07-13T01:12:49;18.13;;;14.80;;
9438;SDS011;5176;42.622;25.386;2023-07-13T01:15:36;17.63;;;14.60;;
9438;SDS011;5176;42.622;25.386;2023-07-13T01:18:05;16.75;;;15.05;;
9438;SDS011;5176;42.622;25.386;2023-07-13T01:20:38;16.75;;;15.05;;
9438;SDS011;5176;42.622;25.386;2023-07-13T01:23:08;18.75;;;15.88;;
9438;SDS011;5176;42.622;25.386;2023-07-13T01:25:38;17.15;;;15.43;;
9438;SDS011;5176;42.622;25.386;2023-07-13T01:28:06;18.10;;;16.25;;
9438;SDS011;5176;42.622;25.386;2023-07-13T01:30:35;18.17;;;16.27;;
9438;SDS011;5176;42.622;25.386;2023-07-13T01:33:03;19.20;;;17.20;;
9438;SDS011;5176;42.622;25.386;2023-07-13T01:35:30;19.35;;;17.13;;
9438;SDS011;5176;42.622;25.386;2023-07-13T01:37:58;19.42;;;17.45;;
9438;SDS011;5176;42.622;25.386;2023-07-13T01:40:28;20.33;;;18.33;;
9438;SDS011;5176;42.622;25.386;2023-07-13T01:42:57;19.67;;;16.70;;
9438;SDS011;5176;42.622;25.386;2023-07-13T01:45:25;20.13;;;16.95;;
9438;SDS011;5176;42.622;25.386;2023-07-13T01:47:52;19.63;;;16.60;;
9438;SDS011;5176;42.622;25.386;2023-07-13T01:50:19;17.95;;;16.08;;
9438;SDS011;5176;42.622;25.386;2023-07-13T01:52:46;18.48;;;16.13;;
9438;SDS011;5176;42.622;25.386;2023-07-13T01:55:14;18.02;;;16.08;;
9438;SDS011;5176;42.622;25.386;2023-07-13T01:57:42;16.23;;;14.57;;
9438;SDS011;5176;42.622;25.386;2023-07-13T02:00:10;16.58;;;15.05;;
9438;SDS011;5176;42.622;25.386;2023-07-13T02:02:38;17.10;;;15.40;;
9438;SDS011;5176;42.622;25.386;2023-07-13T02:05:06;17.65;;;15.85;;
9438;SDS011;5176;42.622;25.386;2023-07-13T02:07:34;19.08;;;16.35;;
9438;SDS011;5176;42.622;25.386;2023-07-13T02:10:01;18.23;;;16.40;;
9438;SDS011;5176;42.622;25.386;2023-07-13T02:12:29;19.10;;;16.38;;
9438;SDS011;5176;42.622;25.386;2023-07-13T02:14:57;19.30;;;17.27;;
9438;SDS011;5176;42.622;25.386;2023-07-13T02:17:25;20.65;;;17.80;;
9438;SDS011;5176;42.622;25.386;2023-07-13T02:19:53;20.15;;;18.05;;
9438;SDS011;5176;42.622;25.386;2023-07-13T02:22:20;21.70;;;17.70;;
9438;SDS011;5176;42.622;25.386;2023-07-13T02:24:49;20.65;;;17.23;;
9438;SDS011;5176;42.622;25.386;2023-07-13T02:27:16;19.67;;;17.45;;
9438;SDS011;5176;42.622;25.386;2023-07-13T02:29:43;19.35;;;17.27;;
9438;SDS011;5176;42.622;25.386;2023-07-13T02:32:12;21.85;;;18.10;;
9438;SDS011;5176;42.622;25.386;2023-07-13T02:34:40;20.45;;;18.23;;
9438;SDS011;5176;42.622;25.386;2023-07-13T02:37:08;24.50;;;18.70;;
9438;SDS011;5176;42.622;25.386;2023-07-13T02:39:35;20.15;;;18.20;;
9438;SDS011;5176;42.622;25.386;2023-07-13T02:42:02;20.15;;;18.05;;
9438;SDS011;5176;42.622;25.386;2023-07-13T02:44:30;20.00;;;18.08;;
9438;SDS011;5176;42.622;25.386;2023-07-13T02:46:57;20.40;;;18.25;;
9438;SDS011;5176;42.622;25.386;2023-07-13T02:49:26;19.65;;;17.65;;
9438;SDS011;5176;42.622;25.386;2023-07-13T02:51:53;18.90;;;16.58;;
9438;SDS011;5176;42.622;25.386;2023-07-13T02:54:20;20.17;;;18.10;;
9438;SDS011;5176;42.622;25.386;2023-07-13T02:56:48;18.90;;;17.00;;
9438;SDS011;5176;42.622;25.386;2023-07-13T02:59:15;19.30;;;17.13;;
9438;SDS011;5176;42.622;25.386;2023-07-13T03:01:42;19.77;;;16.48;;
9438;SDS011;5176;42.622;25.386;2023-07-13T03:04:09;22.13;;;17.42;;
9438;SDS011;5176;42.622;25.386;2023-07-13T03:06:38;26.90;;;17.00;;
9438;SDS011;5176;42.622;25.386;2023-07-13T03:09:06;22.05;;;16.58;;
9438;SDS011;5176;42.622;25.386;2023-07-13T03:11:33;18.67;;;16.75;;
9438;SDS011;5176;42.622;25.386;2023-07-13T03:14:00;18.10;;;16.30;;
9438;SDS011;5176;42.622;25.386;2023-07-13T03:16:27;17.80;;;15.65;;
9438;SDS011;5176;42.622;25.386;2023-07-13T03:18:55;18.23;;;16.33;;
9438;SDS011;5176;42.622;25.386;2023-07-13T03:21:22;18.77;;;16.77;;
9438;SDS011;5176;42.622;25.386;2023-07-13T03:23:51;18.70;;;16.80;;
9438;SDS011;5176;42.622;25.386;2023-07-13T03:26:18;22.98;;;15.55;;
9438;SDS011;5176;42.622;25.386;2023-07-13T03:28:46;18.10;;;16.38;;
9438;SDS011;5176;42.622;25.386;2023-07-13T03:31:15;27.85;;;16.67;;
9438;SDS011;5176;42.622;25.386;2023-07-13T03:33:43;17.38;;;15.52;;
9438;SDS011;5176;42.622;25.386;2023-07-13T03:36:12;17.63;;;15.80;;
9438;SDS011;5176;42.622;25.386;2023-07-13T03:38:41;19.48;;;17.15;;
9438;SDS011;5176;42.622;25.386;2023-07-13T03:41:10;18.10;;;16.30;;
9438;SDS011;5176;42.622;25.386;2023-07-13T03:43:37;24.25;;;16.90;;
9438;SDS011;5176;42.622;25.386;2023-07-13T03:46:04;17.05;;;15.32;;
9438;SDS011;5176;42.622;25.386;2023-07-13T03:48:32;17.70;;;15.80;;
9438;SDS011;5176;42.622;25.386;2023-07-13T03:50:59;19.00;;;17.00;;
9438;SDS011;5176;42.622;25.386;2023-07-13T03:53:26;17.80;;;16.10;;
9438;SDS011;5176;42.622;25.386;2023-07-13T03:55:54;19.48;;;17.13;;
9438;SDS011;5176;42.622;25.386;2023-07-13T03:58:27;20.13;;;18.00;;
9438;SDS011;5176;42.622;25.386;2023-07-13T04:00:57;21.27;;;18.63;;
9438;SDS011;5176;42.622;25.386;2023-07-13T04:03:25;21.77;;;19.48;;
9438;SDS011;5176;42.622;25.386;2023-07-13T04:05:53;22.33;;;19.88;;
9438;SDS011;5176;42.622;25.386;2023-07-13T04:08:25;23.48;;;21.27;;
9438;SDS011;5176;42.622;25.386;2023-07-13T04:10:53;30.02;;;26.67;;
9438;SDS011;5176;42.622;25.386;2023-07-13T04:13:20;29.80;;;26.73;;
9438;SDS011;5176;42.622;25.386;2023-07-13T04:15:49;28.85;;;25.70;;
9438;SDS011;5176;42.622;25.386;2023-07-13T04:18:16;27.58;;;24.73;;
9438;SDS011;5176;42.622;25.386;2023-07-13T04:20:45;25.23;;;22.55;;
9438;SDS011;5176;42.622;25.386;2023-07-13T04:23:12;26.45;;;21.63;;
9438;SDS011;5176;42.622;25.386;2023-07-13T04:25:39;26.65;;;21.60;;
9438;SDS011;5176;42.622;25.386;2023-07-13T04:28:09;23.35;;;20.88;;
9438;SDS011;5176;42.622;25.386;2023-07-13T04:30:37;22.70;;;20.48;;
9438;SDS011;5176;42.622;25.386;2023-07-13T04:33:05;24.40;;;20.70;;
9438;SDS011;5176;42.622;25.386;2023-07-13T04:35:34;23.73;;;21.30;;
9438;SDS011;5176;42.622;25.386;2023-07-13T04:38:02;25.63;;;20.80;;
9438;SDS011;5176;42.622;25.386;2023-07-13T04:40:30;25.50;;;21.40;;
9438;SDS011;5176;42.622;25.386;2023-07-13T04:42:57;25.27;;;22.13;;
9438;SDS011;5176;42.622;25.386;2023-07-13T04:45:24;23.90;;;21.42;;
9438;SDS011;5176;42.622;25.386;2023-07-13T04:47:52;23.50;;;20.98;;
9438;SDS011;5176;42.622;25.386;2023-07-13T04:50:20;22.10;;;19.88;;
9438;SDS011;5176;42.622;25.386;2023-07-13T04:52:48;22.80;;;20.42;;
9438;SDS011;5176;42.622;25.386;2023-07-13T04:55:16;25.38;;;20.05;;
9438;SDS011;5176;42.622;25.386;2023-07-13T04:57:44;23.35;;;20.80;;
9438;SDS011;5176;42.622;25.386;2023-07-13T05:00:13;22.65;;;20.38;;
9438;SDS011;5176;42.622;25.386;2023-07-13T05:02:43;21.42;;;19.17;;
9438;SDS011;5176;42.622;25.386;2023-07-13T05:05:11;20.65;;;18.65;;
9438;SDS011;5176;42.622;25.386;2023-07-13T05:07:39;21.35;;;19.10;;
9438;SDS011;5176;42.622;25.386;2023-07-13T05:10:08;20.75;;;18.73;;
9438;SDS011;5176;42.622;25.386;2023-07-13T05:12:35;22.73;;;20.55;;
9438;SDS011;5176;42.622;25.386;2023-07-13T05:15:03;21.40;;;19.30;;
9438;SDS011;5176;42.622;25.386;2023-07-13T05:17:31;21.42;;;19.23;;
9438;SDS011;5176;42.622;25.386;2023-07-13T05:19:58;22.30;;;20.00;;
9438;SDS011;5176;42.622;25.386;2023-07-13T05:22:26;21.17;;;19.05;;
9438;SDS011;5176;42.622;25.386;2023-07-13T05:24:54;22.70;;;20.05;;
9438;SDS011;5176;42.622;25.386;2023-07-13T05:27:22;22.77;;;20.42;;
9438;SDS011;5176;42.622;25.386;2023-07-13T05:29:49;22.48;;;19.80;;
9438;SDS011;5176;42.622;25.386;2023-07-13T05:32:17;22.92;;;20.52;;
9438;SDS011;5176;42.622;25.386;2023-07-13T05:34:45;22.48;;;20.27;;
9438;SDS011;5176;42.622;25.386;2023-07-13T05:37:12;21.98;;;19.88;;
9438;SDS011;5176;42.622;25.386;2023-07-13T05:39:39;20.58;;;18.40;;
9438;SDS011;5176;42.622;25.386;2023-07-13T05:42:08;19.80;;;18.00;;
9438;SDS011;5176;42.622;25.386;2023-07-13T05:44:35;19.75;;;17.83;;
9438;SDS011;5176;42.622;25.386;2023-07-13T05:47:03;19.83;;;17.83;;
9438;SDS011;5176;42.622;25.386;2023-07-13T05:49:30;26.73;;;18.15;;
9438;SDS011;5176;42.622;25.386;2023-07-13T05:51:57;18.83;;;17.02;;
9438;SDS011;5176;42.622;25.386;2023-07-13T05:54:26;19.98;;;17.95;;
9438;SDS011;5176;42.622;25.386;2023-07-13T05:56:53;19.52;;;17.60;;
9438;SDS011;5176;42.622;25.386;2023-07-13T05:59:22;18.75;;;16.77;;
9438;SDS011;5176;42.622;25.386;2023-07-13T06:01:50;18.67;;;16.88;;
9438;SDS011;5176;42.622;25.386;2023-07-13T06:04:18;18.42;;;16.48;;
9438;SDS011;5176;42.622;25.386;2023-07-13T06:06:45;21.50;;;17.17;;
9438;SDS011;5176;42.622;25.386;2023-07-13T06:09:12;18.27;;;16.48;;
9438;SDS011;5176;42.622;25.386;2023-07-13T06:11:40;21.00;;;18.13;;
9438;SDS011;5176;42.622;25.386;2023-07-13T06:14:07;25.40;;;22.02;;
9438;SDS011;5176;42.622;25.386;2023-07-13T06:16:36;20.98;;;18.88;;
9438;SDS011;5176;42.622;25.386;2023-07-13T06:19:03;20.15;;;18.25;;
9438;SDS011;5176;42.622;25.386;2023-07-13T06:21:31;21.17;;;18.98;;
9438;SDS011;5176;42.622;25.386;2023-07-13T06:23:58;28.60;;;19.08;;
9438;SDS011;5176;42.622;25.386;2023-07-13T06:26:26;20.15;;;17.10;;
9438;SDS011;5176;42.622;25.386;2023-07-13T06:28:53;18.67;;;16.02;;
9438;SDS011;5176;42.622;25.386;2023-07-13T06:31:20;19.23;;;14.75;;
9438;SDS011;5176;42.622;25.386;2023-07-13T06:33:49;15.40;;;13.90;;
9438;SDS011;5176;42.622;25.386;2023-07-13T06:36:16;16.98;;;13.80;;
9438;SDS011;5176;42.622;25.386;2023-07-13T06:38:43;15.70;;;14.30;;
9438;SDS011;5176;42.622;25.386;2023-07-13T06:41:11;15.75;;;14.07;;
9438;SDS011;5176;42.622;25.386;2023-07-13T06:43:38;16.20;;;14.55;;
9438;SDS011;5176;42.622;25.386;2023-07-13T06:46:06;16.30;;;14.50;;
9438;SDS011;5176;42.622;25.386;2023-07-13T06:48:33;17.77;;;15.77;;
9438;SDS011;5176;42.622;25.386;2023-07-13T06:51:02;15.00;;;13.40;;
9438;SDS011;5176;42.622;25.386;2023-07-13T06:53:30;17.65;;;14.02;;
9438;SDS011;5176;42.622;25.386;2023-07-13T06:55:57;17.55;;;14.88;;
9438;SDS011;5176;42.622;25.386;2023-07-13T06:58:24;15.63;;;14.05;;
9438;SDS011;5176;42.622;25.386;2023-07-13T07:00:52;15.07;;;13.73;;
9438;SDS011;5176;42.622;25.386;2023-07-13T07:03:19;14.25;;;12.65;;
9438;SDS011;5176;42.622;25.386;2023-07-13T07:05:47;14.95;;;12.55;;
9438;SDS011;5176;42.622;25.386;2023-07-13T07:08:15;14.02;;;12.07;;
9438;SDS011;5176;42.622;25.386;2023-07-13T07:10:43;14.00;;;12.57;;
9438;SDS011;5176;42.622;25.386;2023-07-13T07:13:10;14.00;;;12.50;;
9438;SDS011;5176;42.622;25.386;2023-07-13T07:15:38;13.77;;;12.38;;
9438;SDS011;5176;42.622;25.386;2023-07-13T07:18:05;14.27;;;11.93;;
9438;SDS011;5176;42.622;25.386;2023-07-13T07:20:32;16.80;;;12.07;;
9438;SDS011;5176;42.622;25.386;2023-07-13T07:22:59;16.50;;;11.63;;
9438;SDS011;5176;42.622;25.386;2023-07-13T07:25:28;13.75;;;12.35;;
9438;SDS011;5176;42.622;25.386;2023-07-13T07:27:58;13.82;;;12.43;;
9438;SDS011;5176;42.622;25.386;2023-07-13T07:30:25;13.45;;;12.15;;
9438;SDS011;5176;42.622;25.386;2023-07-13T07:32:53;16.17;;;12.23;;
9438;SDS011;5176;42.622;25.386;2023-07-13T07:35:20;13.20;;;11.80;;
9438;SDS011;5176;42.622;25.386;2023-07-13T07:37:47;13.25;;;11.98;;
9438;SDS011;5176;42.622;25.386;2023-07-13T07:40:14;13.10;;;11.90;;
9438;SDS011;5176;42.622;25.386;2023-07-13T07:42:43;19.17;;;12.80;;
9438;SDS011;5176;42.622;25.386;2023-07-13T07:45:10;17.40;;;12.27;;
9438;SDS011;5176;42.622;25.386;2023-07-13T07:47:38;14.15;;;12.68;;
9438;SDS011;5176;42.622;25.386;2023-07-13T07:50:06;13.52;;;12.23;;
9438;SDS011;5176;42.622;25.386;2023-07-13T07:52:34;16.48;;;13.35;;
9438;SDS011;5176;42.622;25.386;2023-07-13T07:55:01;14.65;;;13.00;;
9438;SDS011;5176;42.622;25.386;2023-07-13T07:57:28;14.93;;;13.38;;
9438;SDS011;5176;42.622;25.386;2023-07-13T07:59:57;15.95;;;13.40;;
9438;SDS011;5176;42.622;25.386;2023-07-13T08:02:24;15.18;;;13.50;;
9438;SDS011;5176;42.622;25.386;2023-07-13T08:04:52;15.75;;;13.48;;
9438;SDS011;5176;42.622;25.386;2023-07-13T08:07:19;14.55;;;13.25;;
9438;SDS011;5176;42.622;25.386;2023-07-13T08:09:46;14.90;;;12.57;;
9438;SDS011;5176;42.622;25.386;2023-07-13T08:12:17;14.63;;;13.20;;
9438;SDS011;5176;42.622;25.386;2023-07-13T08:14:45;13.40;;;12.20;;
9438;SDS011;5176;42.622;25.386;2023-07-13T08:17:17;14.40;;;12.02;;
9438;SDS011;5176;42.622;25.386;2023-07-13T08:19:44;15.15;;;12.20;;
9438;SDS011;5176;42.622;25.386;2023-07-13T08:22:11;13.07;;;11.52;;
9438;SDS011;5176;42.622;25.386;2023-07-13T08:24:39;12.75;;;11.15;;
9438;SDS011;5176;42.622;25.386;2023-07-13T08:27:07;13.30;;;12.10;;
9438;SDS011;5176;42.622;25.386;2023-07-13T08:29:35;12.20;;;11.10;;
9438;SDS011;5176;42.622;25.386;2023-07-13T08:32:02;12.38;;;11.07;;
9438;SDS011;5176;42.622;25.386;2023-07-13T08:34:31;12.00;;;10.90;;
9438;SDS011;5176;42.622;25.386;2023-07-13T08:36:58;12.07;;;10.77;;
9438;SDS011;5176;42.622;25.386;2023-07-13T08:39:25;12.52;;;10.63;;
9438;SDS011;5176;42.622;25.386;2023-07-13T08:41:55;12.60;;;11.40;;
9438;SDS011;5176;42.622;25.386;2023-07-13T08:44:29;11.75;;;10.50;;
9438;SDS011;5176;42.622;25.386;2023-07-13T08:47:03;11.65;;;10.45;;
9438;SDS011;5176;42.622;25.386;2023-07-13T08:49:33;11.63;;;10.52;;
9438;SDS011;5176;42.622;25.386;2023-07-13T08:52:02;11.70;;;10.50;;
9438;SDS011;5176;42.622;25.386;2023-07-13T08:54:35;11.52;;;10.38;;
9438;SDS011;5176;42.622;25.386;2023-07-13T08:57:09;10.60;;;9.15;;
9438;SDS011;5176;42.622;25.386;2023-07-13T08:59:39;14.30;;;9.15;;
9438;SDS011;5176;42.622;25.386;2023-07-13T09:02:16;11.35;;;9.32;;
9438;SDS011;5176;42.622;25.386;2023-07-13T09:04:53;8.98;;;8.25;;
9438;SDS011;5176;42.622;25.386;2023-07-13T09:07:31;9.63;;;8.77;;
9438;SDS011;5176;42.622;25.386;2023-07-13T09:10:09;10.68;;;9.57;;
9438;SDS011;5176;42.622;25.386;2023-07-13T09:12:45;9.18;;;8.25;;
9438;SDS011;5176;42.622;25.386;2023-07-13T09:15:24;11.48;;;8.90;;
9438;SDS011;5176;42.622;25.386;2023-07-13T09:17:57;9.25;;;8.25;;
9438;SDS011;5176;42.622;25.386;2023-07-13T09:20:31;8.43;;;7.65;;
9438;SDS011;5176;42.622;25.386;2023-07-13T09:23:03;8.93;;;7.82;;
9438;SDS011;5176;42.622;25.386;2023-07-13T09:25:34;10.00;;;8.70;;
9438;SDS011;5176;42.622;25.386;2023-07-13T09:28:05;9.98;;;8.80;;
9438;SDS011;5176;42.622;25.386;2023-07-13T09:30:40;9.40;;;8.35;;
9438;SDS011;5176;42.622;25.386;2023-07-13T09:33:18;10.10;;;8.18;;
9438;SDS011;5176;42.622;25.386;2023-07-13T09:35:47;13.65;;;8.43;;
9438;SDS011;5176;42.622;25.386;2023-07-13T09:38:16;13.77;;;8.07;;
9438;SDS011;5176;42.622;25.386;2023-07-13T09:40:55;9.52;;;8.00;;
9438;SDS011;5176;42.622;25.386;2023-07-13T09:43:27;9.90;;;8.90;;
9438;SDS011;5176;42.622;25.386;2023-07-13T09:45:55;9.35;;;8.55;;
9438;SDS011;5176;42.622;25.386;2023-07-13T09:48:22;11.27;;;9.05;;
9438;SDS011;5176;42.622;25.386;2023-07-13T09:50:51;10.10;;;9.10;;
9438;SDS011;5176;42.622;25.386;2023-07-13T09:53:22;9.57;;;8.77;;
9438;SDS011;5176;42.622;25.386;2023-07-13T09:55:50;10.90;;;9.43;;
9438;SDS011;5176;42.622;25.386;2023-07-13T09:58:18;10.50;;;9.52;;
9438;SDS011;5176;42.622;25.386;2023-07-13T10:00:54;13.65;;;9.00;;
9438;SDS011;5176;42.622;25.386;2023-07-13T10:03:25;9.27;;;8.38;;
9438;SDS011;5176;42.622;25.386;2023-07-13T10:05:55;8.82;;;8.10;;
9438;SDS011;5176;42.622;25.386;2023-07-13T10:08:35;11.30;;;8.85;;
9438;SDS011;5176;42.622;25.386;2023-07-13T10:11:12;9.55;;;8.25;;
9438;SDS011;5176;42.622;25.386;2023-07-13T10:13:46;9.75;;;8.82;;
9438;SDS011;5176;42.622;25.386;2023-07-13T10:16:18;10.32;;;9.32;;
9438;SDS011;5176;42.622;25.386;2023-07-13T10:18:46;10.23;;;8.80;;
9438;SDS011;5176;42.622;25.386;2023-07-13T10:21:18;9.88;;;8.88;;
9438;SDS011;5176;42.622;25.386;2023-07-13T10:23:49;9.40;;;8.60;;
9438;SDS011;5176;42.622;25.386;2023-07-13T10:26:21;10.40;;;9.40;;
9438;SDS011;5176;42.622;25.386;2023-07-13T10:28:52;10.73;;;9.32;;
9438;SDS011;5176;42.622;25.386;2023-07-13T10:31:23;10.38;;;9.15;;
9438;SDS011;5176;42.622;25.386;2023-07-13T10:33:51;14.00;;;9.85;;
9438;SDS011;5176;42.622;25.386;2023-07-13T10:36:23;13.60;;;9.50;;
9438;SDS011;5176;42.622;25.386;2023-07-13T10:38:57;10.40;;;9.00;;
9438;SDS011;5176;42.622;25.386;2023-07-13T10:41:29;10.63;;;9.75;;
9438;SDS011;5176;42.622;25.386;2023-07-13T10:43:59;10.07;;;8.95;;
9438;SDS011;5176;42.622;25.386;2023-07-13T10:46:28;10.48;;;9.57;;
9438;SDS011;5176;42.622;25.386;2023-07-13T10:48:57;9.60;;;8.70;;
9438;SDS011;5176;42.622;25.386;2023-07-13T10:51:31;10.38;;;9.40;;
9438;SDS011;5176;42.622;25.386;2023-07-13T10:56:43;10.27;;;9.27;;
9438;SDS011;5176;42.622;25.386;2023-07-13T10:59:13;9.57;;;8.75;;
9438;SDS011;5176;42.622;25.386;2023-07-13T11:04:39;9.00;;;8.05;;
9438;SDS011;5176;42.622;25.386;2023-07-13T11:07:16;8.73;;;7.55;;
9438;SDS011;5176;42.622;25.386;2023-07-13T11:09:49;8.98;;;8.10;;
9438;SDS011;5176;42.622;25.386;2023-07-13T11:12:28;8.02;;;7.38;;
9438;SDS011;5176;42.622;25.386;2023-07-13T11:15:26;8.70;;;7.90;;
9438;SDS011;5176;42.622;25.386;2023-07-13T11:17:56;8.80;;;7.75;;
9438;SDS011;5176;42.622;25.386;2023-07-13T11:20:33;9.07;;;8.23;;
9438;SDS011;5176;42.622;25.386;2023-07-13T11:23:09;7.97;;;7.28;;
9438;SDS011;5176;42.622;25.386;2023-07-13T11:26:01;8.85;;;7.95;;
9438;SDS011;5176;42.622;25.386;2023-07-13T11:28:30;12.23;;;7.57;;
9438;SDS011;5176;42.622;25.386;2023-07-13T11:31:03;8.82;;;7.15;;
9438;SDS011;5176;42.622;25.386;2023-07-13T11:33:59;8.23;;;6.70;;
9438;SDS011;5176;42.622;25.386;2023-07-13T11:36:30;9.02;;;6.82;;
9438;SDS011;5176;42.622;25.386;2023-07-13T11:39:05;7.22;;;6.63;;
9438;SDS011;5176;42.622;25.386;2023-07-13T11:41:44;6.88;;;6.22;;
9438;SDS011;5176;42.622;25.386;2023-07-13T11:44:17;7.72;;;6.95;;
9438;SDS011;5176;42.622;25.386;2023-07-13T11:46:46;8.85;;;6.55;;
9438;SDS011;5176;42.622;25.386;2023-07-13T11:49:16;6.82;;;6.22;;
9438;SDS011;5176;42.622;25.386;2023-07-13T11:51:44;7.13;;;6.40;;
9438;SDS011;5176;42.622;25.386;2023-07-13T11:54:19;6.95;;;6.25;;
9438;SDS011;5176;42.622;25.386;2023-07-13T11:56:53;7.72;;;6.90;;
9438;SDS011;5176;42.622;25.386;2023-07-13T11:59:23;8.02;;;7.22;;
9438;SDS011;5176;42.622;25.386;2023-07-13T12:01:51;8.07;;;7.28;;
9438;SDS011;5176;42.622;25.386;2023-07-13T12:04:21;8.20;;;7.18;;
9438;SDS011;5176;42.622;25.386;2023-07-13T12:06:55;8.38;;;7.55;;
9438;SDS011;5176;42.622;25.386;2023-07-13T12:09:26;8.27;;;7.53;;
9438;SDS011;5176;42.622;25.386;2023-07-13T12:11:56;8.88;;;7.72;;
9438;SDS011;5176;42.622;25.386;2023-07-13T12:14:25;9.57;;;7.50;;
9438;SDS011;5176;42.622;25.386;2023-07-13T12:16:52;8.30;;;7.50;;
9438;SDS011;5176;42.622;25.386;2023-07-13T12:19:21;7.78;;;7.00;;
9438;SDS011;5176;42.622;25.386;2023-07-13T12:21:50;14.95;;;13.50;;
9438;SDS011;5176;42.622;25.386;2023-07-13T12:24:20;12.88;;;10.27;;
9438;SDS011;5176;42.622;25.386;2023-07-13T12:26:53;12.98;;;8.63;;
9438;SDS011;5176;42.622;25.386;2023-07-13T12:29:21;8.75;;;7.93;;
9438;SDS011;5176;42.622;25.386;2023-07-13T12:31:49;9.25;;;7.97;;
9438;SDS011;5176;42.622;25.386;2023-07-13T12:34:18;8.10;;;7.40;;
9438;SDS011;5176;42.622;25.386;2023-07-13T12:36:47;10.05;;;8.65;;
9438;SDS011;5176;42.622;25.386;2023-07-13T12:39:18;10.90;;;7.90;;
9438;SDS011;5176;42.622;25.386;2023-07-13T12:41:47;9.05;;;7.63;;
9438;SDS011;5176;42.622;25.386;2023-07-13T12:44:17;12.00;;;8.05;;
9438;SDS011;5176;42.622;25.386;2023-07-13T12:46:55;14.63;;;7.43;;
9438;SDS011;5176;42.622;25.386;2023-07-13T12:49:27;9.38;;;8.18;;
9438;SDS011;5176;42.622;25.386;2023-07-13T12:51:58;11.57;;;8.43;;
9438;SDS011;5176;42.622;25.386;2023-07-13T12:54:27;14.07;;;8.68;;
9438;SDS011;5176;42.622;25.386;2023-07-13T12:56:56;11.88;;;8.55;;
9438;SDS011;5176;42.622;25.386;2023-07-13T12:59:31;12.13;;;8.55;;
9438;SDS011;5176;42.622;25.386;2023-07-13T13:02:08;12.55;;;8.27;;
9438;SDS011;5176;42.622;25.386;2023-07-13T13:04:50;11.90;;;8.13;;
9438;SDS011;5176;42.622;25.386;2023-07-13T13:07:17;10.55;;;8.23;;
9438;SDS011;5176;42.622;25.386;2023-07-13T13:09:45;11.65;;;8.15;;
9438;SDS011;5176;42.622;25.386;2023-07-13T13:12:13;10.38;;;7.72;;
9438;SDS011;5176;42.622;25.386;2023-07-13T13:14:43;9.88;;;8.48;;
9438;SDS011;5176;42.622;25.386;2023-07-13T13:17:15;9.95;;;8.77;;
9438;SDS011;5176;42.622;25.386;2023-07-13T13:19:46;11.75;;;8.23;;
9438;SDS011;5176;42.622;25.386;2023-07-13T13:22:15;9.43;;;8.40;;
9438;SDS011;5176;42.622;25.386;2023-07-13T13:24:43;11.73;;;8.43;;
9438;SDS011;5176;42.622;25.386;2023-07-13T13:27:13;12.45;;;8.13;;
9438;SDS011;5176;42.622;25.386;2023-07-13T13:29:45;11.80;;;8.27;;
9438;SDS011;5176;42.622;25.386;2023-07-13T13:32:15;9.80;;;8.27;;
9438;SDS011;5176;42.622;25.386;2023-07-13T13:34:44;9.50;;;8.38;;
9438;SDS011;5176;42.622;25.386;2023-07-13T13:37:18;9.70;;;8.27;;
9438;SDS011;5176;42.622;25.386;2023-07-13T13:39:47;9.07;;;8.02;;
9438;SDS011;5176;42.622;25.386;2023-07-13T13:42:16;9.70;;;7.65;;
9438;SDS011;5176;42.622;25.386;2023-07-13T13:44:46;8.98;;;8.07;;
9438;SDS011;5176;42.622;25.386;2023-07-13T13:47:21;11.30;;;7.63;;
9438;SDS011;5176;42.622;25.386;2023-07-13T13:49:56;13.68;;;8.20;;
9438;SDS011;5176;42.622;25.386;2023-07-13T13:52:23;14.10;;;8.38;;
9438;SDS011;5176;42.622;25.386;2023-07-13T13:54:51;12.88;;;8.18;;
9438;SDS011;5176;42.622;25.386;2023-07-13T13:57:22;12.00;;;8.23;;
9438;SDS011;5176;42.622;25.386;2023-07-13T13:59:52;11.77;;;8.02;;
9438;SDS011;5176;42.622;25.386;2023-07-13T14:02:22;17.67;;;7.78;;
9438;SDS011;5176;42.622;25.386;2023-07-13T14:04:52;13.25;;;7.47;;
9438;SDS011;5176;42.622;25.386;2023-07-13T14:07:23;12.85;;;8.23;;
9438;SDS011;5176;42.622;25.386;2023-07-13T14:09:51;10.07;;;8.25;;
9438;SDS011;5176;42.622;25.386;2023-07-13T14:12:19;14.32;;;8.32;;
9438;SDS011;5176;42.622;25.386;2023-07-13T14:14:47;11.77;;;8.10;;
9438;SDS011;5176;42.622;25.386;2023-07-13T14:17:19;10.80;;;8.40;;
9438;SDS011;5176;42.622;25.386;2023-07-13T14:19:49;13.45;;;9.07;;
9438;SDS011;5176;42.622;25.386;2023-07-13T14:22:22;15.25;;;8.55;;
9438;SDS011;5176;42.622;25.386;2023-07-13T14:24:51;12.07;;;7.97;;
9438;SDS011;5176;42.622;25.386;2023-07-13T14:27:20;11.88;;;8.48;;
9438;SDS011;5176;42.622;25.386;2023-07-13T14:29:47;8.35;;;7.60;;
9438;SDS011;5176;42.622;25.386;2023-07-13T14:32:15;12.63;;;8.88;;
9438;SDS011;5176;42.622;25.386;2023-07-13T14:34:44;10.60;;;7.65;;
9438;SDS011;5176;42.622;25.386;2023-07-13T14:37:12;11.32;;;8.02;;
9438;SDS011;5176;42.622;25.386;2023-07-13T14:39:42;15.13;;;8.30;;
9438;SDS011;5176;42.622;25.386;2023-07-13T14:42:11;17.90;;;8.18;;
9438;SDS011;5176;42.622;25.386;2023-07-13T14:44:38;13.23;;;7.97;;
9438;SDS011;5176;42.622;25.386;2023-07-13T14:47:06;12.80;;;7.95;;
9438;SDS011;5176;42.622;25.386;2023-07-13T14:49:35;12.05;;;8.23;;
9438;SDS011;5176;42.622;25.386;2023-07-13T14:52:10;13.70;;;7.85;;
9438;SDS011;5176;42.622;25.386;2023-07-13T14:54:38;15.65;;;8.98;;
9438;SDS011;5176;42.622;25.386;2023-07-13T14:57:09;12.57;;;8.60;;
9438;SDS011;5176;42.622;25.386;2023-07-13T14:59:37;10.60;;;7.90;;
9438;SDS011;5176;42.622;25.386;2023-07-13T15:02:11;14.23;;;8.48;;